Latest Weather Observations for Kowen Forest

IDN60801

Issued at 7:42 pm EST Wednesday 12 August 2020 (issued every 10 minutes, with the page automatically refreshed every 10 minutes)

About weather observations | Map of weather stations | Latest weather observations for NSW | Other Formats
Station Details ID: 250071 Name: KOWEN FOREST (PCS) Lat: -35.31 Lon: 149.32 Height: 720.0 m

Portable automatic weather stations (PAWS) are operated by other organisations, such as Fire and Emergency Services, and are included here by agreement. Portable stations may be deployed to a location for a short period and their location may be subject to change without notice. Wind observations from these stations are provided from heights of either three (3) or ten (10) metres above ground level (AGL).

Data from the previous 72 hours. | See also: Recent months for locations in New South Wales
Date/Time
EST
Temp
°C
App
Temp
°C
Dew
Point
°C
Rel
Hum
%
Delta-T
°C
Wind Press
QNH
hPa
Press
MSL
hPa
Rain since
9am
mm
Dir  Spd
km/h
Gust
km/h
Spd
kts
Gust
kts
12/07:20pm 8.5 6.7 7.9 96 0.3 N 7 7 4 4 - - 1.4
12/07:10pm 8.5 6.7 8.0 97 0.2 N 7 9 4 5 - - 1.2
12/07:00pm 8.5 6.3 8.0 97 0.2 N 9 11 5 6 - - 0.8
12/06:50pm 8.5 6.9 8.0 97 0.2 N 6 6 3 3 - - 0.6
12/06:40pm 8.6 6.8 8.0 96 0.3 N 7 9 4 5 - - 0.4
12/06:30pm 8.6 6.4 8.0 96 0.3 NNW 9 11 5 6 - - 0.2
12/06:20pm 8.6 6.8 8.0 96 0.3 NNW 7 9 4 5 - - 0.0
12/06:10pm 8.7 6.9 8.0 95 0.3 N 7 9 4 5 - - 0.0
12/06:00pm 8.8 6.3 8.0 95 0.4 N 11 13 6 7 - - 0.0
12/05:50pm 8.8 6.3 8.0 95 0.4 N 11 13 6 7 - - 0.0
12/05:40pm 8.9 6.0 8.0 94 0.4 NNW 13 15 7 8 - - 0.0
12/05:30pm 8.9 6.0 8.0 94 0.4 NNW 13 17 7 9 - - 0.0
12/05:20pm 9.0 6.1 8.0 93 0.5 NNW 13 17 7 9 - - 0.0
12/05:10pm 9.2 6.7 8.0 92 0.6 N 11 13 6 7 - - 0.0
12/05:00pm 9.4 6.1 8.1 92 0.7 N 15 20 8 11 - - 0.0
12/04:50pm 10.3 9.0 7.7 84 1.3 NW 4 7 2 4 - - 0.0
12/04:40pm 10.4 8.7 7.5 82 1.4 NW 6 6 3 3 - - 0.0
12/04:30pm 10.4 9.0 7.2 80 1.6 NW 4 6 2 3 - - 0.0
12/04:20pm 10.4 8.4 7.2 80 1.6 WNW 7 9 4 5 - - 0.0
12/04:10pm 10.4 8.4 7.3 81 1.5 NW 7 9 4 5 - - 0.0
12/04:00pm 10.5 8.1 7.1 79 1.7 NW 9 13 5 7 - - 0.0
12/03:50pm 10.6 8.6 6.9 78 1.8 WNW 7 11 4 6 - - 0.0
12/03:40pm 10.7 8.9 7.1 78 1.8 WNW 6 9 3 5 - - 0.0
12/03:30pm 10.6 8.6 7.1 79 1.7 WNW 7 13 4 7 - - 0.0
12/03:20pm 10.5 8.6 7.4 81 1.5 W 7 9 4 5 - - 0.0
12/03:10pm 10.6 8.9 7.4 80 1.6 W 6 7 3 4 - - 0.0
12/03:00pm 10.3 8.6 7.6 83 1.3 NW 6 9 3 5 - - 0.0
12/02:50pm 10.1 8.2 7.6 84 1.2 NW 7 11 4 6 - - 0.0
12/02:40pm 9.9 8.2 7.6 85 1.1 NW 6 7 3 4 - - 0.0
12/02:30pm 9.8 8.0 7.8 87 1.0 WNW 7 9 4 5 - - 0.0
12/02:20pm 9.8 7.6 7.9 88 1.0 WNW 9 13 5 7 - - 0.0
12/02:10pm 9.7 6.2 7.4 85 1.1 WNW 15 17 8 9 - - 0.0
12/02:00pm 9.9 6.4 7.1 83 1.4 WNW 15 17 8 9 - - 0.0
12/01:50pm 10.2 6.6 6.6 78 1.8 WNW 15 17 8 9 - - 0.0
12/01:40pm 10.3 6.7 6.8 79 1.7 WNW 15 17 8 9 - - 0.0
12/01:30pm 10.4 6.7 6.4 76 1.9 WNW 15 17 8 9 - - 0.0
12/01:20pm 10.5 7.6 6.6 77 1.9 WNW 11 13 6 7 - - 0.0
12/01:10pm 10.5 7.2 6.3 75 2.0 WNW 13 19 7 10 - - 0.0
12/01:00pm 10.7 7.4 6.3 74 2.1 W 13 15 7 8 - - 0.0
12/12:50pm 10.7 7.4 6.4 75 2.1 W 13 17 7 9 - - 0.0
12/12:40pm 10.8 7.1 6.4 74 2.2 W 15 20 8 11 - - 0.0
12/12:30pm 11.1 7.1 6.6 74 2.2 WNW 17 19 9 10 - - 0.0
12/12:20pm 11.6 7.8 6.0 68 2.7 W 15 19 8 10 - - 0.0
12/12:10pm 11.2 7.5 6.2 71 2.4 WNW 15 20 8 11 - - 0.0
12/12:00pm 11.4 8.1 6.2 70 2.5 WNW 13 17 7 9 - - 0.0
12/11:50am 11.4 7.3 6.2 70 2.5 WNW 17 20 9 11 - - 0.0
12/11:40am 10.8 6.7 6.0 72 2.3 NW 17 20 9 11 - - 0.0
12/11:30am 11.1 6.6 6.1 71 2.4 NW 19 24 10 13 - - 0.0
12/11:20am 11.5 7.4 6.3 70 2.5 WNW 17 20 9 11 - - 0.0
12/11:10am 11.0 6.4 5.6 69 2.6 WNW 19 24 10 13 - - 0.0
12/11:00am 11.6 7.5 6.0 68 2.7 NW 17 22 9 12 - - 0.0
12/10:50am 11.1 7.3 5.8 70 2.6 NNW 15 19 8 10 - - 0.0
12/10:40am 10.7 7.8 6.4 75 2.1 NNW 11 15 6 8 - - 0.0
12/10:30am 9.6 7.9 5.8 77 1.8 W 4 6 2 3 - - 0.0
12/10:20am 8.3 6.7 6.3 87 1.0 S 4 6 2 3 - - 0.0
12/10:10am 6.6 5.2 5.6 93 0.5 WSW 2 2 1 1 - - 0.0
12/10:00am 5.5 3.9 4.7 95 0.4 NW 2 2 1 1 - - 0.0
12/09:50am 4.9 3.3 4.4 97 0.2 NNE 2 2 1 1 - - 0.0
12/09:40am 4.4 3.1 4.0 97 0.2 CALM 0 2 0 1 - - 0.0
12/09:30am 4.0 2.6 3.7 98 0.1 CALM 0 2 0 1 - - 0.0
12/09:20am 3.7 1.9 3.4 98 0.1 W 2 4 1 2 - - 0.0
12/09:10am 3.3 1.4 3.1 99 0.1 WSW 2 2 1 1 - - 0.0
12/09:00am 3.1 1.2 2.9 99 0.1 W 2 2 1 1 - - 0.2
12/08:50am 2.8 0.9 2.6 99 0.1 WNW 2 2 1 1 - - 0.2
12/08:40am 2.4 0.4 2.2 99 0.1 WNW 2 2 1 1 - - 0.2
12/08:30am 2.0 -0.1 1.9 99 0.0 SW 2 4 1 2 - - 0.2
12/08:20am 1.8 -0.7 1.7 99 0.0 SW 4 4 2 2 - - 0.2
12/08:10am 1.5 -1.0 1.4 99 0.0 ESE 4 4 2 2 - - 0.0
12/08:00am 0.8 -1.8 0.7 99 0.0 NE 4 4 2 2 - - 0.0
12/07:50am 0.6 -1.7 0.4 99 0.1 NW 2 2 1 1 - - 0.0
12/07:40am 0.4 -1.9 0.2 99 0.1 E 2 2 1 1 - - 0.0
12/07:30am 0.1 -2.3 -0.1 99 0.1 WNW 2 4 1 2 - - 0.0
12/07:20am -0.1 -2.9 -0.3 99 0.1 N 4 4 2 2 - - 0.0
12/07:10am -0.3 -3.5 -0.5 99 0.1 WNW 6 7 3 4 - - 0.0
12/07:00am -0.3 -3.1 -0.5 99 0.1 S 4 6 2 3 - - 0.0
12/06:50am -0.3 -2.7 -0.5 99 0.1 ENE 2 4 1 2 - - 0.0
12/06:40am -0.5 -3.3 -0.6 99 0.0 NE 4 4 2 2 - - 0.0
12/06:30am -0.4 -3.2 -0.5 99 0.0 NE 4 6 2 3 - - 0.0
12/06:20am -0.8 -3.7 -1.0 99 0.0 NE 4 4 2 2 - - 0.0
12/06:10am -0.6 -3.1 -0.8 99 0.0 W 2 2 1 1 - - 0.0
12/06:00am 0.0 -2.4 -0.1 99 0.0 NE 2 4 1 2 - - 0.0
12/05:50am -0.7 -3.9 -0.8 99 0.0 NE 6 7 3 4 - - 0.0
12/05:40am -1.0 -3.9 -1.1 99 0.0 NNE 4 6 2 3 - - 0.0
12/05:30am -0.6 -3.1 -0.7 99 0.0 NE 2 2 1 1 - - 0.0
12/05:20am -1.2 -4.1 -1.4 99 0.0 NE 4 4 2 2 - - 0.0
12/05:10am -1.5 -4.5 -1.7 99 0.0 NE 4 6 2 3 - - 0.0
12/05:00am -1.5 -3.7 -1.7 99 0.0 CALM 0 2 0 1 - - 0.0
12/04:50am -1.1 -3.6 -1.3 99 0.0 ENE 2 2 1 1 - - 0.0
12/04:40am -1.3 -4.2 -1.4 99 0.0 NE 4 4 2 2 - - 0.0
12/04:30am -1.4 -4.0 -1.6 99 0.0 ESE 2 2 1 1 - - 0.0
12/04:20am -0.9 -3.8 -1.1 99 0.0 NE 4 7 2 4 - - 0.0
12/04:10am -0.5 -3.9 -0.7 99 0.0 NE 7 7 4 4 - - 0.0
12/04:00am -0.9 -3.8 -1.0 99 0.0 NE 4 6 2 3 - - 0.0
12/03:50am -1.2 -4.5 -1.4 99 0.0 ENE 6 6 3 3 - - 0.0
12/03:40am -1.2 -4.1 -1.3 99 0.0 NNE 4 6 2 3 - - 0.0
12/03:30am -1.0 -3.5 -1.2 99 0.0 ENE 2 4 1 2 - - 0.0
12/03:20am -0.9 -3.4 -1.1 99 0.0 NE 2 4 1 2 - - 0.0
12/03:10am -0.9 -3.8 -1.1 99 0.0 NE 4 4 2 2 - - 0.0
12/03:00am -0.5 -3.7 -0.7 99 0.0 NE 6 7 3 4 - - 0.0
12/02:50am -0.7 -4.0 -0.9 99 0.0 NE 6 7 3 4 - - 0.0
12/02:40am -0.8 -3.7 -1.0 99 0.0 NE 4 4 2 2 - - 0.0
12/02:30am -0.9 -3.8 -1.0 99 0.0 ENE 4 4 2 2 - - 0.0
12/02:20am -0.6 -3.5 -0.8 99 0.0 NE 4 4 2 2 - - 0.0
12/02:10am -0.4 -2.8 -0.5 99 0.0 NE 2 4 1 2 - - 0.0
12/02:00am 0.1 -2.7 -0.1 99 0.1 NNE 4 6 2 3 - - 0.0
12/01:50am -0.5 -3.3 -0.7 99 0.0 NNE 4 4 2 2 - - 0.0
12/01:40am -0.1 -2.9 -0.3 99 0.1 NE 4 4 2 2 - - 0.0
12/01:30am -0.3 -3.1 -0.4 99 0.0 NE 4 4 2 2 - - 0.0
12/01:20am 0.2 -2.2 0.0 99 0.1 NE 2 2 1 1 - - 0.0
12/01:10am 0.6 -1.7 0.4 99 0.1 N 2 2 1 1 - - 0.0
12/01:00am 0.7 -1.6 0.6 99 0.0 E 2 2 1 1 - - 0.0
12/12:50am 0.7 -1.6 0.6 99 0.0 NE 2 2 1 1 - - 0.0
12/12:40am 1.0 -1.6 0.8 99 0.1 NNE 4 6 2 3 - - 0.0
12/12:30am 1.4 -1.1 1.3 99 0.0 NE 4 6 2 3 - - 0.0
12/12:20am 0.9 -2.1 0.8 99 0.0 NNE 6 7 3 4 - - 0.0
12/12:10am 1.2 -1.4 1.0 99 0.1 NE 4 7 2 4 - - 0.0
12/12:00am 1.2 -1.0 1.0 99 0.1 NE 2 4 1 2 - - 0.0
 
Date/Time
EST
Temp
°C
App
Temp
°C
Dew
Point
°C
Rel
Hum
%
Delta-T
°C
Wind Press
QNH
hPa
Press
MSL
hPa
Rain since
9am
mm
Dir  Spd
km/h
Gust
km/h
Spd
kts
Gust
kts
11/11:50pm 1.0 -1.6 0.9 99 0.0 NE 4 4 2 2 - - 0.0
11/11:40pm 1.8 -0.7 1.6 99 0.1 NE 4 4 2 2 - - 0.0
11/11:30pm 1.7 -0.8 1.6 99 0.0 NE 4 6 2 3 - - 0.0
11/11:20pm 1.0 -2.0 0.8 99 0.1 NE 6 6 3 3 - - 0.0
11/11:10pm 1.4 -1.7 1.2 99 0.1 NE 7 7 4 4 - - 0.0
11/11:00pm 1.1 -1.9 0.9 99 0.1 NNE 6 7 3 4 - - 0.0
11/10:50pm 1.4 -0.8 1.2 99 0.1 NE 2 4 1 2 - - 0.0
11/10:40pm 1.3 -0.9 1.2 99 0.0 NE 2 4 1 2 - - 0.0
11/10:30pm 1.0 -2.0 0.8 99 0.1 NNE 6 6 3 3 - - 0.0
11/10:20pm 1.2 -1.8 1.0 99 0.1 NE 6 6 3 3 - - 0.0
11/10:10pm 1.1 -1.5 0.9 99 0.1 NE 4 7 2 4 - - 0.0
11/10:00pm 1.5 -1.0 1.3 99 0.1 E 4 6 2 3 - - 0.0
11/09:50pm 1.3 -1.3 1.1 99 0.1 NNE 4 6 2 3 - - 0.0
11/09:40pm 1.2 -1.8 1.0 99 0.1 NNE 6 6 3 3 - - 0.0
11/09:30pm 1.2 -1.8 1.0 99 0.1 NE 6 7 3 4 - - 0.0
11/09:20pm 1.2 -1.8 1.0 99 0.1 NE 6 7 3 4 - - 0.0
11/09:10pm 0.9 -1.8 0.6 98 0.1 NE 4 6 2 3 - - 0.0
11/09:00pm 0.9 -1.8 0.6 98 0.1 NNE 4 6 2 3 - - 0.0
11/08:50pm 1.3 -0.9 1.1 99 0.1 ESE 2 4 1 2 - - 0.0
11/08:40pm 0.8 -1.5 0.6 99 0.1 WNW 2 6 1 3 - - 0.0
11/08:30pm 0.9 -2.1 0.6 98 0.1 NNE 6 6 3 3 - - 0.0
11/08:20pm 1.2 -1.8 0.8 97 0.2 NE 6 7 3 4 - - 0.0
11/08:10pm 1.5 -1.5 1.1 97 0.2 NNE 6 6 3 3 - - 0.0
11/08:00pm 2.0 -0.1 1.6 97 0.2 ENE 2 4 1 2 - - 0.0
11/07:50pm 2.6 0.2 2.2 97 0.2 - 4 6 2 3 - - 0.0
11/07:40pm 2.1 -0.8 1.6 96 0.2 NNE 6 6 3 3 - - 0.0
11/07:30pm 2.4 -0.1 1.6 94 0.3 NE 4 6 2 3 - - 0.0
11/07:20pm 3.3 1.3 2.4 94 0.4 E 2 4 1 2 - - 0.0
11/07:10pm 3.7 1.8 2.7 93 0.4 SE 2 4 1 2 - - 0.0
11/07:00pm 4.8 2.2 3.2 89 0.7 ENE 6 7 3 4 - - 0.0
11/06:50pm 4.8 2.2 3.2 89 0.7 NE 6 7 3 4 - - 0.0
11/06:40pm 4.1 1.5 3.2 94 0.4 NE 6 6 3 3 - - 0.0
11/06:30pm 4.3 2.1 3.3 93 0.4 NE 4 4 2 2 - - 0.0
11/06:20pm 4.4 2.2 3.5 94 0.4 NE 4 4 2 2 - - 0.0
11/06:10pm 4.3 2.1 3.5 94 0.3 N 4 4 2 2 - - 0.0
11/06:00pm 4.6 2.5 3.7 94 0.4 NNE 4 6 2 3 - - 0.0
11/05:50pm 4.9 2.4 3.9 93 0.4 NE 6 6 3 3 - - 0.0
11/05:40pm 5.5 3.8 4.2 91 0.6 N 2 4 1 2 - - 0.0
11/05:30pm 6.5 4.5 4.4 86 0.9 N 4 4 2 2 - - 0.0
11/05:20pm 7.4 5.1 4.6 82 1.3 NW 6 7 3 4 - - 0.0
11/05:10pm 8.1 5.2 4.4 77 1.7 WNW 9 11 5 6 - - 0.0
11/05:00pm 8.9 5.6 4.5 74 2.0 W 11 15 6 8 - - 0.0
11/04:50pm 9.2 5.1 4.3 71 2.3 W 15 19 8 10 - - 0.0
11/04:40pm 9.7 6.0 4.4 69 2.5 W 13 17 7 9 - - 0.0
11/04:30pm 10.2 7.3 4.7 68 2.6 NW 9 11 5 6 - - 0.0
11/04:20pm 10.6 7.7 4.9 68 2.7 NW 9 11 5 6 - - 0.0
11/04:10pm 10.5 7.6 4.5 66 2.8 NNW 9 11 5 6 - - 0.0
11/04:00pm 10.7 8.1 4.4 65 2.9 NW 7 11 4 6 - - 0.0
11/03:50pm 10.6 8.6 4.4 65 2.9 NNW 4 7 2 4 - - 0.0
11/03:40pm 11.2 8.8 4.3 62 3.2 NW 6 11 3 6 - - 0.0
11/03:30pm 11.4 9.5 4.7 63 3.2 W 4 6 2 3 - - 0.0
11/03:20pm 10.6 8.3 4.8 67 2.7 SSW 6 9 3 5 - - 0.0
11/03:10pm 10.4 7.9 4.6 67 2.7 SSW 7 11 4 6 - - 0.0
11/03:00pm 10.2 7.3 4.4 67 2.7 SSW 9 11 5 6 - - 0.0
11/02:50pm 9.9 6.5 4.2 67 2.6 SW 11 15 6 8 - - 0.0
11/02:40pm 10.1 6.9 5.1 71 2.4 WNW 11 13 6 7 - - 0.0
11/02:30pm 9.7 5.7 4.8 71 2.3 W 15 17 8 9 - - 0.0
11/02:20pm 9.6 5.9 4.2 69 2.5 W 13 19 7 10 - - 0.0
11/02:10pm 9.6 6.2 4.0 68 2.6 WNW 11 15 6 8 - - 0.0
11/02:00pm 9.9 6.3 4.9 71 2.3 W 13 15 7 8 - - 0.0
11/01:50pm 9.3 6.0 4.5 72 2.2 SW 11 13 6 7 - - 0.0
11/01:40pm 8.9 5.1 4.1 72 2.2 SSW 13 17 7 9 - - 0.0
11/01:30pm 8.9 4.8 4.6 74 2.0 SSW 15 17 8 9 - - 0.0
11/01:20pm 9.2 7.0 5.4 77 1.8 S 6 13 3 7 - - 0.0
11/01:10pm 8.7 5.6 3.7 71 2.3 S 9 11 5 6 - - 0.0
11/01:00pm 8.1 5.0 3.8 74 1.9 S 9 13 5 7 - - 0.0
11/12:50pm 8.2 5.2 4.1 75 1.9 SSW 9 11 5 6 - - 0.0
11/12:40pm 8.1 4.7 4.1 76 1.8 SW 11 13 6 7 - - 0.0
11/12:30pm 7.7 4.7 4.1 78 1.6 SW 9 11 5 6 - - 0.0
11/12:20pm 8.0 5.6 4.1 76 1.8 WSW 6 9 3 5 - - 0.0
11/12:10pm 7.8 5.0 3.3 73 2.0 N 7 11 4 6 - - 0.0
11/12:00pm 8.0 4.1 3.6 74 2.0 N 13 17 7 9 - - 0.0
11/11:50am 7.9 4.8 3.5 74 2.0 NNW 9 15 5 8 - - 0.0
11/11:40am 7.8 4.7 3.5 74 1.9 N 9 13 5 7 - - 0.0
11/11:30am 8.1 5.6 3.9 75 1.9 N 6 11 3 6 - - 0.0
11/11:20am 7.4 4.7 3.5 76 1.7 N 7 13 4 7 - - 0.0
11/11:10am 7.2 4.5 3.6 78 1.6 NNW 7 11 4 6 - - 0.0
11/11:00am 6.9 4.3 3.3 78 1.6 N 6 9 3 5 - - 0.0
11/10:50am 6.6 3.0 3.1 78 1.5 N 11 15 6 8 - - 0.0
11/10:40am 6.4 3.2 3.1 79 1.4 N 9 13 5 7 - - 0.0
11/10:30am 5.9 3.1 3.2 83 1.2 E 7 11 4 6 - - 0.0
11/10:20am 5.0 2.8 3.4 89 0.7 S 4 6 2 3 - - 0.0
11/10:10am 4.4 2.5 2.7 89 0.7 W 2 4 1 2 - - 0.0
11/10:00am 4.1 2.2 2.6 90 0.6 WSW 2 4 1 2 - - 0.0
11/09:50am 3.5 1.2 2.5 93 0.4 SSW 4 4 2 2 - - 0.0
11/09:40am 3.0 0.5 1.8 92 0.5 SSW 4 6 2 3 - - 0.0
11/09:30am 2.7 0.2 1.4 91 0.5 SW 4 6 2 3 - - 0.0
11/09:20am 2.2 -0.8 1.1 92 0.4 SW 6 6 3 3 - - 0.0
11/09:10am 2.0 -1.0 1.0 93 0.4 SSW 6 6 3 3 - - 0.0
11/09:00am 1.7 -0.9 0.8 94 0.4 SSW 4 4 2 2 - - 0.0
11/08:50am 1.4 -0.9 0.6 94 0.3 W 2 4 1 2 - - 0.0
11/08:40am 1.2 -1.1 0.3 94 0.3 N 2 2 1 1 - - 0.0
11/08:30am 0.9 -1.5 -0.1 93 0.4 NE 2 4 1 2 - - 0.0
11/08:20am 0.8 -1.6 -0.3 92 0.4 NNE 2 4 1 2 - - 0.0
11/08:10am 0.7 -2.1 -0.5 92 0.5 NNE 4 4 2 2 - - 0.0
11/08:00am 0.0 -2.9 -1.0 93 0.4 NE 4 4 2 2 - - 0.0
11/07:50am -0.8 -3.8 -1.8 93 0.3 NNE 4 4 2 2 - - 0.0
11/07:40am -1.5 -4.6 -2.3 94 0.2 NE 4 6 2 3 - - 0.0
11/07:30am -2.5 -5.7 -3.2 95 0.1 NE 4 4 2 2 - - 0.0
11/07:20am -3.4 -6.3 -4.0 96 0.1 NNE 2 4 1 2 - - 0.0
11/07:10am -3.2 -6.0 -3.7 96 0.0 E 2 2 1 1 - - 0.0
11/07:00am -2.9 -5.7 -3.3 97 0.0 NE 2 4 1 2 - - 0.0
11/06:50am -3.0 -6.6 -3.5 96 0.0 NE 6 6 3 3 - - 0.0
11/06:40am -3.4 -7.0 -3.9 96 0.0 NE 6 6 3 3 - - 0.0
11/06:30am -3.3 -6.5 -3.7 97 0.0 NE 4 4 2 2 - - 0.0
11/06:20am -2.8 -6.5 -3.2 97 0.0 NE 7 9 4 5 - - 0.0
11/06:10am -2.5 -6.2 -3.0 96 0.1 NE 7 7 4 4 - - 0.0
11/06:00am -2.6 -6.1 -3.0 97 0.0 NE 6 6 3 3 - - 0.0
11/05:50am -3.2 -6.8 -3.6 97 0.0 NE 6 6 3 3 - - 0.0
11/05:40am -2.7 -6.2 -3.1 97 0.0 ENE 6 6 3 3 - - 0.0
11/05:30am -3.0 -6.2 -3.4 97 0.0 NE 4 6 2 3 - - 0.0
11/05:20am -2.4 -5.9 -2.8 97 0.0 NE 6 7 3 4 - - 0.0
11/05:10am -2.1 -5.8 -2.5 97 0.0 NE 7 7 4 4 - - 0.0
11/05:00am -2.4 -5.9 -2.8 97 0.0 NE 6 6 3 3 - - 0.0
11/04:50am -2.6 -5.7 -2.9 98 0.0 ENE 4 4 2 2 - - 0.0
11/04:40am -3.2 -6.4 -3.6 97 0.0 NNE 4 4 2 2 - - 0.0
11/04:30am -3.0 -6.2 -3.4 97 0.0 NNE 4 4 2 2 - - 0.0
11/04:20am -2.9 -6.1 -3.3 97 0.0 NNE 4 6 2 3 - - 0.0
11/04:10am -2.8 -5.6 -3.2 97 0.0 WNW 2 2 1 1 - - 0.0
11/04:00am -2.2 -4.9 -2.5 98 0.0 SSE 2 2 1 1 - - 0.0
11/03:50am -2.8 -5.6 -3.1 98 0.0 NE 2 4 1 2 - - 0.0
11/03:40am -2.8 -6.3 -3.2 97 0.0 NNE 6 6 3 3 - - 0.0
11/03:30am -2.6 -5.7 -2.9 98 0.0 ENE 4 4 2 2 - - 0.0
11/03:20am -2.5 -5.6 -2.9 97 0.0 NE 4 6 2 3 - - 0.0
11/03:10am -2.3 -5.8 -2.6 98 0.0 NE 6 6 3 3 - - 0.0
11/03:00am -2.4 -5.9 -2.7 98 0.0 NE 6 6 3 3 - - 0.0
11/02:50am -2.2 -5.7 -2.6 97 0.0 NE 6 6 3 3 - - 0.0
11/02:40am -2.3 -5.4 -2.6 98 0.0 NE 4 6 2 3 - - 0.0
11/02:30am -2.2 -5.3 -2.6 97 0.0 NE 4 4 2 2 - - 0.0
11/02:20am -2.4 -5.9 -2.8 97 0.0 NNE 6 6 3 3 - - 0.0
11/02:10am -2.3 -5.4 -2.6 98 0.0 ENE 4 4 2 2 - - 0.0
11/02:00am -2.2 -5.7 -2.6 97 0.0 NE 6 6 3 3 - - 0.0
11/01:50am -1.8 -4.8 -2.2 97 0.1 NE 4 6 2 3 - - 0.0
11/01:40am -1.3 -4.8 -1.6 98 0.0 NE 7 7 4 4 - - 0.0
11/01:30am -1.4 -4.8 -1.7 98 0.0 NE 6 7 3 4 - - 0.0
11/01:20am -1.9 -5.5 -2.2 98 0.0 NNE 7 7 4 4 - - 0.0
11/01:10am -1.4 -4.8 -1.7 98 0.0 NE 6 7 3 4 - - 0.0
11/01:00am -1.7 -5.3 -2.1 97 0.1 NE 7 7 4 4 - - 0.0
11/12:50am -1.2 -4.7 -1.6 97 0.1 NE 7 7 4 4 - - 0.0
11/12:40am -1.6 -5.2 -2.0 97 0.1 NE 7 7 4 4 - - 0.0
11/12:30am -1.6 -5.0 -1.9 98 0.0 NE 6 6 3 3 - - 0.0
11/12:20am -1.2 -4.5 -1.5 98 0.1 NE 6 6 3 3 - - 0.0
11/12:10am -0.8 -3.7 -1.2 97 0.1 NE 4 6 2 3 - - 0.0
11/12:00am -0.9 -3.4 -1.3 97 0.1 N 2 2 1 1 - - 0.0
 
Date/Time
EST
Temp
°C
App
Temp
°C
Dew
Point
°C
Rel
Hum
%
Delta-T
°C
Wind Press
QNH
hPa
Press
MSL
hPa
Rain since
9am
mm
Dir  Spd
km/h
Gust
km/h
Spd
kts
Gust
kts
10/11:50pm -1.1 -4.1 -1.5 97 0.1 NNE 4 6 2 3 - - 0.0
10/11:40pm -1.0 -4.0 -1.5 96 0.1 NNE 4 6 2 3 - - 0.0
10/11:30pm -0.5 -3.4 -0.8 98 0.1 NE 4 6 2 3 - - 0.0
10/11:20pm -0.5 -3.4 -0.9 97 0.1 ENE 4 4 2 2 - - 0.0
10/11:10pm -0.7 -3.6 -1.1 97 0.1 N 4 6 2 3 - - 0.0
10/11:00pm -0.6 -3.1 -1.2 96 0.2 NE 2 4 1 2 - - 0.0
10/10:50pm -0.2 -3.1 -0.8 96 0.2 ENE 4 4 2 2 - - 0.0
10/10:40pm 0.0 -2.8 -0.6 96 0.2 N 4 4 2 2 - - 0.0
10/10:30pm 0.5 -2.3 -0.2 95 0.3 ESE 4 6 2 3 - - 0.0
10/10:20pm 0.6 -2.2 -0.2 94 0.3 E 4 4 2 2 - - 0.0
10/10:10pm 0.7 -1.7 -0.1 94 0.3 NE 2 4 1 2 - - 0.0
10/10:00pm 0.7 -2.1 -0.2 94 0.3 NE 4 7 2 4 - - 0.0
10/09:50pm 1.7 -2.0 -0.2 87 0.7 E 9 11 5 6 - - 0.0
10/09:40pm 1.4 -2.6 0.3 92 0.4 ENE 11 13 6 7 - - 0.0
10/09:30pm 0.3 -2.9 -0.2 96 0.2 ENE 6 7 3 4 - - 0.0
10/09:20pm 0.4 -2.4 -0.2 96 0.2 NE 4 6 2 3 - - 0.0
10/09:10pm 0.6 -2.1 0.1 96 0.2 ENE 4 4 2 2 - - 0.0
10/09:00pm 0.9 -1.4 0.3 96 0.2 NE 2 4 1 2 - - 0.0
10/08:50pm 1.0 -1.3 0.4 96 0.2 NNE 2 2 1 1 - - 0.0
10/08:40pm 1.1 -1.2 0.4 95 0.3 NE 2 2 1 1 - - 0.0
10/08:30pm 1.2 -1.5 0.5 95 0.3 NE 4 4 2 2 - - 0.0
10/08:20pm 1.6 -1.0 0.8 94 0.3 ENE 4 6 2 3 - - 0.0
10/08:10pm 1.8 -1.2 1.0 94 0.3 NE 6 6 3 3 - - 0.0
10/08:00pm 1.7 -1.3 0.8 94 0.4 ENE 6 7 3 4 - - 0.0
10/07:50pm 2.3 -0.6 1.3 93 0.4 ENE 6 6 3 3 - - 0.0
10/07:40pm 2.0 -0.9 1.2 94 0.3 NE 6 6 3 3 - - 0.0
10/07:30pm 2.7 0.1 1.2 90 0.6 E 4 7 2 4 - - 0.0
10/07:20pm 3.1 0.6 1.8 91 0.5 ENE 4 6 2 3 - - 0.0
10/07:10pm 4.0 1.5 1.7 85 0.9 ESE 4 6 2 3 - - 0.0
10/07:00pm 4.7 2.3 2.2 84 1.1 - 4 6 2 3 - - 0.0
10/06:50pm 5.1 2.2 1.4 77 1.5 E 6 6 3 3 - - 0.0
10/06:40pm 5.3 2.6 2.4 81 1.2 NE 6 6 3 3 - - 0.0
10/06:30pm 6.1 3.7 2.0 75 1.7 E 4 6 2 3 - - 0.0
10/06:20pm 6.3 3.3 1.9 73 1.9 ESE 7 9 4 5 - - 0.0
10/06:10pm 6.5 3.7 1.9 72 2.0 ESE 6 7 3 4 - - 0.0
10/06:00pm 6.6 3.8 1.8 71 2.0 ESE 6 7 3 4 - - 0.0
10/05:50pm 6.7 3.8 1.6 70 2.2 ESE 6 7 3 4 - - 0.0
10/05:40pm 6.7 3.7 1.7 70 2.1 ESE 7 9 4 5 - - 0.0
10/05:30pm 7.0 3.6 1.9 70 2.2 ESE 9 11 5 6 - - 0.0
10/05:20pm 7.3 4.3 1.7 67 2.4 E 7 7 4 4 - - 0.0
10/05:10pm 7.5 4.1 2.1 68 2.3 ESE 9 11 5 6 - - 0.0
10/05:00pm 7.9 3.7 1.9 66 2.6 ESE 13 17 7 9 - - 0.0
10/04:50pm 8.4 3.9 2.3 65 2.7 ESE 15 20 8 11 - - 0.0
10/04:40pm 9.0 4.9 2.3 63 2.9 ESE 13 17 7 9 - - 0.0
10/04:30pm 9.2 4.8 2.7 64 2.9 SE 15 17 8 9 - - 0.0
10/04:20pm 9.4 4.9 2.1 60 3.2 ESE 15 19 8 10 - - 0.0
10/04:10pm 9.6 5.1 2.1 59 3.3 ESE 15 20 8 11 - - 0.0
10/04:00pm 9.7 5.2 2.1 59 3.3 ESE 15 22 8 12 - - 0.0
10/03:50pm 9.7 4.7 1.6 57 3.5 ESE 17 22 9 12 - - 0.0
10/03:40pm 9.8 4.5 1.7 57 3.5 ESE 19 22 10 12 - - 0.0
10/03:30pm 9.9 5.0 1.9 57 3.5 ESE 17 20 9 11 - - 0.0
10/03:20pm 10.0 5.1 1.9 57 3.6 ESE 17 24 9 13 - - 0.0
10/03:10pm 10.1 5.2 1.7 56 3.7 ESE 17 20 9 11 - - 0.0
10/03:00pm 10.1 4.7 1.5 55 3.7 ESE 19 24 10 13 - - 0.0
10/02:50pm 10.3 5.8 2.0 56 3.7 ESE 15 19 8 10 - - 0.0
10/02:40pm 10.1 5.2 1.8 56 3.6 ESE 17 22 9 12 - - 0.0
10/02:30pm 10.1 5.5 1.8 56 3.6 ESE 15 19 8 10 - - 0.0
10/02:20pm 9.6 4.2 1.3 56 3.6 ESE 19 24 10 13 - - 0.0
10/02:10pm 9.7 4.5 2.2 59 3.3 SE 19 24 10 13 - - 0.0
10/02:00pm 10.1 4.6 2.1 57 3.5 ESE 20 24 11 13 - - 0.0
10/01:50pm 10.3 5.0 1.7 55 3.8 SE 19 24 10 13 - - 0.0
10/01:40pm 10.3 5.4 1.8 55 3.7 SE 17 19 9 10 - - 0.0
10/01:30pm 10.5 6.3 1.8 55 3.8 SE 13 20 7 11 - - 0.0
10/01:20pm 10.3 5.0 2.0 56 3.7 SE 19 24 10 13 - - 0.0
10/01:10pm 10.2 4.3 2.0 57 3.6 SE 22 30 12 16 - - 0.0
10/01:00pm 10.2 4.2 1.2 53 3.9 SE 22 28 12 15 - - 0.0
10/12:50pm 10.3 4.3 1.3 53 3.9 SE 22 26 12 14 - - 0.0
10/12:40pm 9.9 4.0 1.7 56 3.6 SE 22 28 12 15 - - 0.0
10/12:30pm 9.9 4.0 1.5 56 3.7 SSE 22 24 12 13 - - 0.0
10/12:20pm 9.9 3.3 1.9 57 3.5 S 26 30 14 16 - - 0.0
10/12:10pm 9.7 4.2 2.1 59 3.3 SSE 20 26 11 14 - - 0.0
10/12:00pm 9.6 4.1 1.7 58 3.4 S 20 22 11 12 - - 0.0
10/11:50am 9.3 2.9 1.0 56 3.5 S 24 32 13 17 - - 0.0
10/11:40am 9.3 3.4 1.5 58 3.4 S 22 30 12 16 - - 0.0
10/11:30am 9.1 3.6 1.7 60 3.2 S 20 28 11 15 - - 0.0
10/11:20am 9.2 4.6 1.5 58 3.3 SSE 15 20 8 11 - - 0.0
10/11:10am 9.0 3.0 1.2 58 3.3 S 22 28 12 15 - - 0.0
10/11:00am 9.2 3.3 1.6 59 3.3 SSE 22 28 12 15 - - 0.0
10/10:50am 8.9 3.6 1.8 61 3.1 SSE 19 26 10 14 - - 0.0
10/10:40am 8.4 2.5 1.8 63 2.8 SSE 22 28 12 15 - - 0.0
10/10:30am 8.2 1.9 1.6 63 2.8 S 24 28 13 15 - - 0.0
10/10:20am 8.2 1.1 1.6 63 2.8 S 28 32 15 17 - - 0.0
10/10:10am 8.5 2.2 1.6 62 3.0 SSE 24 35 13 19 - - 0.0
10/10:00am 8.9 2.7 2.3 63 2.9 S 24 28 13 15 - - 0.0
10/09:50am 9.1 2.9 1.9 60 3.1 S 24 30 13 16 - - 0.0
10/09:40am 8.8 2.5 1.3 59 3.2 SSE 24 32 13 17 - - 0.0
10/09:30am 8.7 2.0 1.6 61 3.1 S 26 33 14 18 - - 0.0
10/09:20am 8.3 2.7 1.0 60 3.1 S 20 30 11 16 - - 0.0
10/09:10am 8.2 2.7 2.1 65 2.6 S 20 28 11 15 - - 0.0
10/09:00am 8.3 2.9 2.2 65 2.7 S 20 26 11 14 - - 12.6
10/08:50am 8.3 3.0 1.6 62 2.9 S 19 22 10 12 - - 12.6
10/08:40am 8.1 2.7 1.5 63 2.8 S 19 26 10 14 - - 12.6
10/08:30am 7.9 2.7 2.3 68 2.4 S 19 22 10 12 - - 12.6
10/08:20am 7.7 2.8 2.2 68 2.4 S 17 22 9 12 - - 12.6
10/08:10am 7.6 2.7 2.3 69 2.3 S 17 22 9 12 - - 12.6
10/08:00am 7.5 3.4 2.5 70 2.2 S 13 17 7 9 - - 12.6
10/07:50am 7.0 3.0 2.8 74 1.8 SSE 13 17 7 9 - - 12.6
10/07:40am 6.5 2.9 2.7 77 1.6 S 11 15 6 8 - - 12.6
10/07:30am 6.5 2.5 3.0 78 1.5 S 13 17 7 9 - - 12.6
10/07:20am 6.4 2.8 3.0 79 1.5 SSE 11 15 6 8 - - 12.6
10/07:10am 6.4 2.8 3.0 79 1.5 SSE 11 15 6 8 - - 12.6
10/07:00am 6.4 2.5 3.3 80 1.4 SSE 13 19 7 10 - - 12.6
10/06:50am 6.5 1.4 3.2 79 1.4 SSE 19 20 10 11 - - 12.6
10/06:40am 6.3 2.5 3.7 83 1.2 SSE 13 20 7 11 - - 12.6
10/06:30am 6.3 2.6 4.3 87 0.9 SSE 13 20 7 11 - - 12.6
10/06:20am 6.2 2.5 4.5 89 0.8 SSE 13 17 7 9 - - 12.6
10/06:10am 6.1 2.8 4.6 90 0.7 SSE 11 15 6 8 - - 12.6
10/06:00am 6.1 2.8 4.6 90 0.7 SSE 11 13 6 7 - - 12.6
10/05:50am 6.0 3.1 4.4 89 0.7 SSE 9 13 5 7 - - 12.6
10/05:40am 5.9 3.3 4.4 90 0.7 SSE 7 11 4 6 - - 12.6
10/05:30am 5.8 2.9 4.4 91 0.6 SSE 9 13 5 7 - - 12.6
10/05:20am 5.8 3.3 4.5 91 0.6 SSE 7 9 4 5 - - 12.6
10/05:10am 5.8 2.5 4.4 91 0.6 SSE 11 13 6 7 - - 12.6
10/05:00am 5.9 2.2 4.3 89 0.7 SSE 13 19 7 10 - - 12.6
10/04:50am 6.0 2.2 4.0 87 0.9 SSE 13 17 7 9 - - 12.6
10/04:40am 6.1 2.3 3.7 84 1.1 SSE 13 17 7 9 - - 12.6
10/04:30am 6.1 2.5 3.2 82 1.3 SSE 11 15 6 8 - - 12.6
10/04:20am 6.1 2.5 2.9 80 1.4 SSE 11 13 6 7 - - 12.6
10/04:10am 6.2 2.2 2.9 79 1.4 SSE 13 17 7 9 - - 12.6
10/04:00am 6.3 2.3 2.6 77 1.6 S 13 17 7 9 - - 12.6
10/03:50am 6.4 2.7 2.6 77 1.6 SSE 11 17 6 9 - - 12.6
10/03:40am 6.5 3.2 2.5 75 1.7 SE 9 17 5 9 - - 12.6
10/03:30am 6.7 3.9 2.9 77 1.7 SE 7 13 4 7 - - 12.6
10/03:20am 7.0 3.4 2.8 74 1.8 SSE 11 19 6 10 - - 12.6
10/03:10am 7.0 3.4 3.2 77 1.7 SSE 11 13 6 7 - - 12.6
10/03:00am 7.1 3.2 3.6 78 1.6 S 13 17 7 9 - - 12.6
10/02:50am 7.1 2.9 3.7 79 1.5 S 15 22 8 12 - - 12.6
10/02:40am 7.2 2.2 3.5 77 1.6 S 19 22 10 12 - - 12.6
10/02:30am 7.1 2.5 3.8 79 1.5 S 17 22 9 12 - - 12.6
10/02:20am 7.2 3.1 4.1 81 1.4 S 15 19 8 10 - - 12.6
10/02:10am 7.2 2.7 4.1 81 1.4 S 17 24 9 13 - - 12.6
10/02:00am 7.1 3.4 4.3 82 1.3 S 13 19 7 10 - - 12.6
10/01:50am 7.1 3.0 4.5 83 1.2 SSE 15 19 8 10 - - 12.6
10/01:40am 7.2 3.1 4.6 83 1.2 S 15 22 8 12 - - 12.6
10/01:30am 7.1 3.4 4.5 83 1.2 SSE 13 22 7 12 - - 12.6
10/01:20am 6.9 2.1 4.8 86 1.0 SSE 19 22 10 12 - - 12.6
10/01:10am 6.8 3.6 5.2 89 0.7 SSE 11 15 6 8 - - 12.6
10/01:00am 6.7 3.1 5.2 90 0.7 SSE 13 19 7 10 - - 12.4
10/12:50am 6.7 3.1 5.2 90 0.7 S 13 19 7 10 - - 12.2
10/12:40am 6.7 3.5 5.3 91 0.6 SSE 11 13 6 7 - - 12.0
10/12:30am 6.9 3.0 5.2 89 0.8 S 15 17 8 9 - - 11.8
10/12:20am 7.2 2.8 4.9 85 1.1 S 17 20 9 11 - - 11.8
10/12:10am 7.3 3.6 4.4 82 1.3 S 13 15 7 8 - - 11.8
10/12:00am 7.3 3.6 4.3 81 1.4 SSE 13 17 7 9 - - 11.8
 
Date/Time
EST
Temp
°C
App
Temp
°C
Dew
Point
°C
Rel
Hum
%
Delta-T
°C
Wind Press
QNH
hPa
Press
MSL
hPa
Rain since
9am
mm
Dir  Spd
km/h
Gust
km/h
Spd
kts
Gust
kts
09/11:50pm 7.4 3.3 4.3 81 1.4 SSE 15 20 8 11 - - 11.8
09/11:40pm 7.3 2.8 4.4 82 1.3 SSE 17 26 9 14 - - 11.8
09/11:30pm 7.1 2.7 4.9 86 1.0 SSE 17 22 9 12 - - 11.8
09/11:20pm 7.0 3.4 4.9 86 1.0 SSE 13 17 7 9 - - 11.8
09/11:10pm 7.0 2.0 4.8 86 1.0 SSE 20 28 11 15 - - 11.8
09/11:00pm 7.1 2.8 5.2 88 0.9 SSE 17 22 9 12 - - 11.8
09/10:50pm 7.2 2.5 5.2 87 0.9 SSE 19 24 10 13 - - 11.8
09/10:40pm 7.2 2.5 5.1 86 1.0 SSE 19 28 10 15 - - 11.8
09/10:30pm 6.9 3.3 5.2 89 0.8 SSE 13 17 7 9 - - 11.8
09/10:20pm 6.9 2.6 5.4 90 0.7 SSE 17 24 9 13 - - 11.8
09/10:10pm 6.8 3.3 5.5 91 0.6 SSE 13 17 7 9 - - 11.8
09/10:00pm 6.8 2.6 5.5 91 0.6 SSE 17 22 9 12 - - 11.6
09/09:50pm 6.7 2.0 5.3 91 0.6 SSE 19 28 10 15 - - 11.4
09/09:40pm 6.6 2.7 5.3 91 0.6 SE 15 20 8 11 - - 11.4
09/09:30pm 6.6 2.7 5.3 91 0.6 SE 15 19 8 10 - - 11.2
09/09:20pm 6.6 2.7 5.4 92 0.6 SE 15 19 8 10 - - 11.0
09/09:10pm 6.7 2.4 5.3 91 0.6 SE 17 22 9 12 - - 11.0
09/09:00pm 6.7 2.4 5.2 90 0.7 SSE 17 24 9 13 - - 10.8
09/08:50pm 6.7 2.8 5.2 90 0.7 SE 15 19 8 10 - - 10.6
09/08:40pm 6.8 2.5 5.1 89 0.8 SSE 17 28 9 15 - - 10.4
09/08:30pm 6.8 3.2 5.2 89 0.7 SSE 13 19 7 10 - - 10.4
09/08:20pm 6.7 2.8 5.2 90 0.7 SSE 15 20 8 11 - - 10.2
09/08:10pm 6.5 3.8 5.4 93 0.5 S 9 17 5 9 - - 10.0
09/08:00pm 6.6 3.1 5.3 91 0.6 S 13 15 7 8 - - 10.0
09/07:50pm 6.6 3.5 5.4 92 0.6 S 11 15 6 8 - - 9.8

Other formats

Comma delimited format used in spreadsheet applications
http://www.bom.gov.au/fwo/IDN60801/IDN60801.99764.axf

JavaScript Object Notation format (JSON) in row-major order
http://www.bom.gov.au/fwo/IDN60801/IDN60801.99764.json

Data quality

Most of these data are generated automatically and are frequently updated. Quality checks on data are not normally performed. It is possible for incorrect values to appear. Refer to information at About Latest Weather Observations and please check the disclaimer before using these data.